sensor_id;sensor_type;location;lat;lon;timestamp;pressure;altitude;pressure_sealevel;temperature;humidity
10832;BME280;5469;48.574;8.768;2023-02-02T00:00:31;95510.50;;;3.75;84.81
10832;BME280;5469;48.574;8.768;2023-02-02T00:03:07;95510.34;;;3.70;84.74
10832;BME280;5469;48.574;8.768;2023-02-02T00:05:48;95512.84;;;3.83;84.59
10832;BME280;5469;48.574;8.768;2023-02-02T00:08:23;95504.56;;;3.86;84.38
10832;BME280;5469;48.574;8.768;2023-02-02T00:11:01;95497.69;;;3.92;84.01
10832;BME280;5469;48.574;8.768;2023-02-02T00:13:36;95503.47;;;4.01;83.69
10832;BME280;5469;48.574;8.768;2023-02-02T00:19:13;95493.34;;;3.79;84.98
10832;BME280;5469;48.574;8.768;2023-02-02T00:21:50;95495.19;;;3.72;85.27
10832;BME280;5469;48.574;8.768;2023-02-02T00:24:25;95496.34;;;3.76;85.22
10832;BME280;5469;48.574;8.768;2023-02-02T00:27:02;95500.44;;;3.72;85.08
10832;BME280;5469;48.574;8.768;2023-02-02T00:29:37;95504.03;;;3.78;84.84
10832;BME280;5469;48.574;8.768;2023-02-02T00:32:12;95495.19;;;3.72;85.30
10832;BME280;5469;48.574;8.768;2023-02-02T00:34:47;95485.88;;;3.76;85.07
10832;BME280;5469;48.574;8.768;2023-02-02T00:37:22;95504.50;;;3.68;85.17
10832;BME280;5469;48.574;8.768;2023-02-02T00:39:57;95501.59;;;3.76;85.19
10832;BME280;5469;48.574;8.768;2023-02-02T00:42:34;95499.63;;;3.71;84.80
10832;BME280;5469;48.574;8.768;2023-02-02T00:45:14;95487.13;;;3.74;85.18
10832;BME280;5469;48.574;8.768;2023-02-02T00:47:53;95495.63;;;3.69;84.78
10832;BME280;5469;48.574;8.768;2023-02-02T00:50:29;95482.28;;;3.70;84.68
10832;BME280;5469;48.574;8.768;2023-02-02T00:53:05;95513.00;;;3.63;85.16
10832;BME280;5469;48.574;8.768;2023-02-02T00:55:40;95490.31;;;3.76;84.79
10832;BME280;5469;48.574;8.768;2023-02-02T00:58:17;95492.16;;;3.75;84.91
10832;BME280;5469;48.574;8.768;2023-02-02T01:00:53;95498.44;;;3.67;85.07
10832;BME280;5469;48.574;8.768;2023-02-02T01:03:29;95493.53;;;3.78;84.77
10832;BME280;5469;48.574;8.768;2023-02-02T01:06:05;95483.13;;;3.71;85.44
10832;BME280;5469;48.574;8.768;2023-02-02T01:08:40;95489.09;;;3.78;84.83
10832;BME280;5469;48.574;8.768;2023-02-02T01:11:15;95507.25;;;3.80;85.24
10832;BME280;5469;48.574;8.768;2023-02-02T01:13:52;95490.28;;;3.82;85.41
10832;BME280;5469;48.574;8.768;2023-02-02T01:16:28;95499.16;;;3.81;85.98
10832;BME280;5469;48.574;8.768;2023-02-02T01:19:03;95499.47;;;3.91;85.19
10832;BME280;5469;48.574;8.768;2023-02-02T01:21:38;95507.00;;;3.81;86.07
10832;BME280;5469;48.574;8.768;2023-02-02T01:24:15;95520.88;;;3.88;85.02
10832;BME280;5469;48.574;8.768;2023-02-02T01:26:50;95515.22;;;3.91;85.63
10832;BME280;5469;48.574;8.768;2023-02-02T01:29:27;95508.22;;;3.85;85.79
10832;BME280;5469;48.574;8.768;2023-02-02T01:32:02;95512.19;;;3.94;86.02
10832;BME280;5469;48.574;8.768;2023-02-02T01:34:37;95510.41;;;3.88;85.81
10832;BME280;5469;48.574;8.768;2023-02-02T01:37:14;95506.34;;;3.92;85.79
10832;BME280;5469;48.574;8.768;2023-02-02T01:39:50;95504.31;;;3.94;85.35
10832;BME280;5469;48.574;8.768;2023-02-02T01:42:25;95507.91;;;4.00;85.82
10832;BME280;5469;48.574;8.768;2023-02-02T01:45:11;95498.66;;;3.98;85.51
10832;BME280;5469;48.574;8.768;2023-02-02T01:47:51;95494.22;;;3.91;85.98
10832;BME280;5469;48.574;8.768;2023-02-02T01:50:30;95484.19;;;3.88;85.22
10832;BME280;5469;48.574;8.768;2023-02-02T01:53:09;95498.53;;;4.11;85.41
10832;BME280;5469;48.574;8.768;2023-02-02T01:55:45;95498.66;;;3.98;86.09
10832;BME280;5469;48.574;8.768;2023-02-02T01:58:25;95501.00;;;4.06;85.52
10832;BME280;5469;48.574;8.768;2023-02-02T02:01:03;95513.94;;;4.01;86.37
10832;BME280;5469;48.574;8.768;2023-02-02T02:03:39;95495.38;;;4.02;86.73
10832;BME280;5469;48.574;8.768;2023-02-02T02:06:18;95503.47;;;4.01;85.95
10832;BME280;5469;48.574;8.768;2023-02-02T02:08:56;95497.19;;;4.02;86.40
10832;BME280;5469;48.574;8.768;2023-02-02T02:11:32;95507.94;;;3.93;86.86
10832;BME280;5469;48.574;8.768;2023-02-02T02:14:11;95503.03;;;4.04;87.01
10832;BME280;5469;48.574;8.768;2023-02-02T02:17:12;95493.72;;;4.08;87.29
10832;BME280;5469;48.574;8.768;2023-02-02T02:20:19;95501.44;;;4.03;87.07
10832;BME280;5469;48.574;8.768;2023-02-02T02:27:01;95487.34;;;3.97;87.91
10832;BME280;5469;48.574;8.768;2023-02-02T02:30:01;95512.22;;;3.88;88.33
10832;BME280;5469;48.574;8.768;2023-02-02T02:32:45;95497.88;;;3.90;88.32
10832;BME280;5469;48.574;8.768;2023-02-02T02:35:30;95504.88;;;3.97;87.60
10832;BME280;5469;48.574;8.768;2023-02-02T02:38:12;95509.94;;;3.98;87.87
10832;BME280;5469;48.574;8.768;2023-02-02T02:40:53;95505.59;;;3.85;88.15
10832;BME280;5469;48.574;8.768;2023-02-02T02:43:33;95509.13;;;3.98;87.60
10832;BME280;5469;48.574;8.768;2023-02-02T02:46:10;95509.13;;;3.98;88.07
10832;BME280;5469;48.574;8.768;2023-02-02T02:48:47;95512.44;;;3.86;88.25
10832;BME280;5469;48.574;8.768;2023-02-02T02:51:43;95519.28;;;3.87;88.43
10832;BME280;5469;48.574;8.768;2023-02-02T02:54:21;95513.63;;;3.90;88.87
10832;BME280;5469;48.574;8.768;2023-02-02T02:57:08;95508.34;;;3.97;87.92
10832;BME280;5469;48.574;8.768;2023-02-02T02:59:54;95511.78;;;3.91;88.81
10832;BME280;5469;48.574;8.768;2023-02-02T03:02:37;95524.53;;;3.87;89.42
10832;BME280;5469;48.574;8.768;2023-02-02T03:05:35;95517.44;;;3.94;89.51
10832;BME280;5469;48.574;8.768;2023-02-02T03:08:18;95521.81;;;4.01;89.26
10832;BME280;5469;48.574;8.768;2023-02-02T03:10:57;95520.75;;;4.08;87.93
10832;BME280;5469;48.574;8.768;2023-02-02T03:13:35;95526.47;;;3.99;89.44
10832;BME280;5469;48.574;8.768;2023-02-02T03:16:13;95527.50;;;3.98;89.32
10832;BME280;5469;48.574;8.768;2023-02-02T03:18:49;95527.66;;;4.03;88.14
10832;BME280;5469;48.574;8.768;2023-02-02T03:21:25;95525.63;;;4.05;89.43
10832;BME280;5469;48.574;8.768;2023-02-02T03:24:01;95521.38;;;4.04;89.82
10832;BME280;5469;48.574;8.768;2023-02-02T03:26:37;95524.44;;;4.01;89.60
10832;BME280;5469;48.574;8.768;2023-02-02T03:29:14;95515.97;;;3.99;89.62
10832;BME280;5469;48.574;8.768;2023-02-02T03:31:51;95513.97;;;3.94;89.95
10832;BME280;5469;48.574;8.768;2023-02-02T03:34:26;95517.59;;;4.00;90.63
10832;BME280;5469;48.574;8.768;2023-02-02T03:37:03;95525.31;;;3.94;90.33
10832;BME280;5469;48.574;8.768;2023-02-02T03:39:38;95531.53;;;3.93;91.24
10832;BME280;5469;48.574;8.768;2023-02-02T03:42:13;95515.31;;;3.78;91.15
10832;BME280;5469;48.574;8.768;2023-02-02T03:44:48;95527.75;;;3.89;91.47
10832;BME280;5469;48.574;8.768;2023-02-02T03:47:24;95519.06;;;3.89;91.75
10832;BME280;5469;48.574;8.768;2023-02-02T03:50:01;95536.19;;;3.91;91.81
10832;BME280;5469;48.574;8.768;2023-02-02T03:52:38;95528.59;;;3.83;92.18
10832;BME280;5469;48.574;8.768;2023-02-02T03:55:13;95531.38;;;3.88;92.18
10832;BME280;5469;48.574;8.768;2023-02-02T03:57:48;95534.16;;;3.93;92.11
10832;BME280;5469;48.574;8.768;2023-02-02T04:00:25;95536.03;;;3.86;92.68
10832;BME280;5469;48.574;8.768;2023-02-02T04:03:01;95542.63;;;3.96;92.20
10832;BME280;5469;48.574;8.768;2023-02-02T04:05:38;95538.25;;;3.89;92.50
10832;BME280;5469;48.574;8.768;2023-02-02T04:08:15;95539.06;;;3.83;93.05
10832;BME280;5469;48.574;8.768;2023-02-02T04:10:50;95532.66;;;3.79;94.32
10832;BME280;5469;48.574;8.768;2023-02-02T04:13:28;95543.91;;;3.86;93.63
10832;BME280;5469;48.574;8.768;2023-02-02T04:16:04;95540.69;;;3.84;93.40
10832;BME280;5469;48.574;8.768;2023-02-02T04:18:40;95533.00;;;3.89;93.32
10832;BME280;5469;48.574;8.768;2023-02-02T04:21:15;95528.66;;;3.77;94.81
10832;BME280;5469;48.574;8.768;2023-02-02T04:23:53;95520.34;;;3.80;94.15
10832;BME280;5469;48.574;8.768;2023-02-02T04:26:29;95529.78;;;3.87;93.85
10832;BME280;5469;48.574;8.768;2023-02-02T04:29:04;95534.88;;;3.82;93.95
10832;BME280;5469;48.574;8.768;2023-02-02T04:31:39;95539.66;;;3.92;93.52
10832;BME280;5469;48.574;8.768;2023-02-02T04:34:14;95536.03;;;3.86;93.45
10832;BME280;5469;48.574;8.768;2023-02-02T04:36:49;95545.09;;;3.90;93.29
10832;BME280;5469;48.574;8.768;2023-02-02T04:39:26;95531.38;;;3.88;93.35
10832;BME280;5469;48.574;8.768;2023-02-02T04:42:01;95544.66;;;3.93;92.90
10832;BME280;5469;48.574;8.768;2023-02-02T04:44:36;95537.06;;;3.85;93.51
10832;BME280;5469;48.574;8.768;2023-02-02T04:47:11;95547.13;;;3.88;93.33
10832;BME280;5469;48.574;8.768;2023-02-02T04:49:46;95543.06;;;3.92;92.57
10832;BME280;5469;48.574;8.768;2023-02-02T04:52:21;95553.56;;;3.92;91.43
10832;BME280;5469;48.574;8.768;2023-02-02T04:54:57;95555.16;;;3.93;92.03
10832;BME280;5469;48.574;8.768;2023-02-02T04:57:32;95549.47;;;3.97;92.07
10832;BME280;5469;48.574;8.768;2023-02-02T05:00:09;95542.63;;;3.96;91.44
10832;BME280;5469;48.574;8.768;2023-02-02T05:02:44;95546.03;;;4.03;91.11
10832;BME280;5469;48.574;8.768;2023-02-02T05:05:19;95558.38;;;3.96;90.78
10832;BME280;5469;48.574;8.768;2023-02-02T05:07:54;95544.22;;;3.97;90.99
10832;BME280;5469;48.574;8.768;2023-02-02T05:10:31;95556.34;;;3.98;91.20
10832;BME280;5469;48.574;8.768;2023-02-02T05:13:06;95544.81;;;3.99;91.07
10832;BME280;5469;48.574;8.768;2023-02-02T05:15:42;95547.69;;;3.97;91.51
10832;BME280;5469;48.574;8.768;2023-02-02T05:18:17;95560.81;;;3.90;91.80
10832;BME280;5469;48.574;8.768;2023-02-02T05:20:52;95557.13;;;3.98;92.13
10832;BME280;5469;48.574;8.768;2023-02-02T05:23:27;95555.56;;;3.90;91.86
10832;BME280;5469;48.574;8.768;2023-02-02T05:26:05;95566.94;;;3.84;92.57
10832;BME280;5469;48.574;8.768;2023-02-02T05:28:40;95568.53;;;3.85;93.19
10832;BME280;5469;48.574;8.768;2023-02-02T05:31:15;95560.41;;;3.93;92.28
10832;BME280;5469;48.574;8.768;2023-02-02T05:33:50;95565.28;;;3.90;93.10
10832;BME280;5469;48.574;8.768;2023-02-02T05:36:25;95573.75;;;3.92;93.45
10832;BME280;5469;48.574;8.768;2023-02-02T05:39:00;95567.66;;;3.91;94.36
10832;BME280;5469;48.574;8.768;2023-02-02T05:41:36;95576.56;;;3.90;94.51
10832;BME280;5469;48.574;8.768;2023-02-02T05:44:13;95569.28;;;3.92;93.85
10832;BME280;5469;48.574;8.768;2023-02-02T05:46:48;95579.38;;;3.89;94.46
10832;BME280;5469;48.574;8.768;2023-02-02T05:49:23;95575.59;;;3.85;95.47
10832;BME280;5469;48.574;8.768;2023-02-02T05:51:58;95587.50;;;3.81;95.94
10832;BME280;5469;48.574;8.768;2023-02-02T05:54:33;95590.28;;;3.86;96.32
10832;BME280;5469;48.574;8.768;2023-02-02T05:57:10;95586.69;;;3.87;96.62
10832;BME280;5469;48.574;8.768;2023-02-02T05:59:45;95599.97;;;3.92;96.08
10832;BME280;5469;48.574;8.768;2023-02-02T06:02:20;95595.78;;;3.84;96.67
10832;BME280;5469;48.574;8.768;2023-02-02T06:04:55;95584.28;;;3.79;96.61
10832;BME280;5469;48.574;8.768;2023-02-02T06:07:30;95595.94;;;3.89;95.88
10832;BME280;5469;48.574;8.768;2023-02-02T06:10:07;95586.63;;;3.93;95.49
10832;BME280;5469;48.574;8.768;2023-02-02T06:12:43;95591.09;;;3.86;96.08
10832;BME280;5469;48.574;8.768;2023-02-02T06:15:18;95603.22;;;3.81;97.38
10832;BME280;5469;48.574;8.768;2023-02-02T06:17:53;95608.88;;;3.84;96.79
10832;BME280;5469;48.574;8.768;2023-02-02T06:20:29;95608.06;;;3.84;97.15
10832;BME280;5469;48.574;8.768;2023-02-02T06:23:06;95610.06;;;3.88;97.59
10832;BME280;5469;48.574;8.768;2023-02-02T06:25:43;95603.28;;;3.74;97.97
10832;BME280;5469;48.574;8.768;2023-02-02T06:28:20;95602.88;;;3.77;97.62
10832;BME280;5469;48.574;8.768;2023-02-02T06:30:56;95610.06;;;3.88;97.54
10832;BME280;5469;48.574;8.768;2023-02-02T06:33:37;95616.56;;;3.79;97.84
10832;BME280;5469;48.574;8.768;2023-02-02T06:36:12;95610.91;;;3.82;98.33
10832;BME280;5469;48.574;8.768;2023-02-02T06:38:50;95606.09;;;3.79;98.54
10832;BME280;5469;48.574;8.768;2023-02-02T06:41:26;95613.78;;;3.74;99.03
10832;BME280;5469;48.574;8.768;2023-02-02T06:44:02;95602.81;;;3.84;97.99
10832;BME280;5469;48.574;8.768;2023-02-02T06:46:38;95612.94;;;3.80;98.36
10832;BME280;5469;48.574;8.768;2023-02-02T06:49:13;95615.75;;;3.79;98.22
10832;BME280;5469;48.574;8.768;2023-02-02T06:51:48;95612.31;;;3.85;97.57
10832;BME280;5469;48.574;8.768;2023-02-02T06:54:23;95616.16;;;3.82;97.96
10832;BME280;5469;48.574;8.768;2023-02-02T06:56:58;95620.38;;;3.83;98.28
10832;BME280;5469;48.574;8.768;2023-02-02T06:59:35;95628.22;;;3.83;98.19
10832;BME280;5469;48.574;8.768;2023-02-02T07:02:12;95610.91;;;3.82;98.06
10832;BME280;5469;48.574;8.768;2023-02-02T07:04:47;95605.06;;;3.80;98.43
10832;BME280;5469;48.574;8.768;2023-02-02T07:07:24;95617.91;;;3.88;97.85
10832;BME280;5469;48.574;8.768;2023-02-02T07:10:01;95619.38;;;3.84;97.85
10832;BME280;5469;48.574;8.768;2023-02-02T07:12:36;95616.41;;;3.74;98.70
10832;BME280;5469;48.574;8.768;2023-02-02T07:15:12;95608.72;;;3.79;98.53
10832;BME280;5469;48.574;8.768;2023-02-02T07:17:47;95610.50;;;3.79;98.64
10832;BME280;5469;48.574;8.768;2023-02-02T07:20:22;95617.19;;;3.75;98.43
10832;BME280;5469;48.574;8.768;2023-02-02T07:22:57;95602.44;;;3.80;98.64
10832;BME280;5469;48.574;8.768;2023-02-02T07:25:32;95602.44;;;3.80;99.06
10832;BME280;5469;48.574;8.768;2023-02-02T07:28:07;95598.41;;;3.84;98.21
10832;BME280;5469;48.574;8.768;2023-02-02T07:30:43;95604.03;;;3.81;98.62
10832;BME280;5469;48.574;8.768;2023-02-02T07:33:18;95596.34;;;3.86;98.42
10832;BME280;5469;48.574;8.768;2023-02-02T07:35:54;95620.53;;;3.88;98.62
10832;BME280;5469;48.574;8.768;2023-02-02T07:38:28;95612.41;;;3.97;98.65
10832;BME280;5469;48.574;8.768;2023-02-02T07:41:04;95619.72;;;3.94;98.68
10832;BME280;5469;48.574;8.768;2023-02-02T07:43:40;95618.09;;;3.93;98.98
10832;BME280;5469;48.574;8.768;2023-02-02T07:46:17;95613.69;;;3.87;98.62
10832;BME280;5469;48.574;8.768;2023-02-02T07:48:55;95632.19;;;3.99;98.98
10832;BME280;5469;48.574;8.768;2023-02-02T07:51:30;95639.06;;;4.00;97.65
10832;BME280;5469;48.574;8.768;2023-02-02T07:54:06;95636.25;;;3.95;98.63
10832;BME280;5469;48.574;8.768;2023-02-02T07:56:41;95630.94;;;4.02;98.48
10832;BME280;5469;48.574;8.768;2023-02-02T07:59:17;95624.53;;;3.98;98.88
10832;BME280;5469;48.574;8.768;2023-02-02T08:01:54;95629.91;;;4.09;97.67
10832;BME280;5469;48.574;8.768;2023-02-02T08:04:30;95620.00;;;4.11;97.62
10832;BME280;5469;48.574;8.768;2023-02-02T08:07:06;95628.50;;;4.07;98.34
10832;BME280;5469;48.574;8.768;2023-02-02T08:09:46;95632.91;;;4.13;96.93
10832;BME280;5469;48.574;8.768;2023-02-02T08:12:23;95626.44;;;4.15;96.22
10832;BME280;5469;48.574;8.768;2023-02-02T08:14:59;95628.09;;;4.10;96.38
10832;BME280;5469;48.574;8.768;2023-02-02T08:17:35;95637.31;;;4.19;95.82
10832;BME280;5469;48.574;8.768;2023-02-02T08:20:13;95643.00;;;4.16;96.49
10832;BME280;5469;48.574;8.768;2023-02-02T08:22:48;95640.63;;;4.08;95.73
10832;BME280;5469;48.574;8.768;2023-02-02T08:25:24;95626.06;;;4.12;96.27
10832;BME280;5469;48.574;8.768;2023-02-02T08:28:00;95626.38;;;4.22;95.48
10832;BME280;5469;48.574;8.768;2023-02-02T08:30:38;95628.00;;;4.23;94.97
10832;BME280;5469;48.574;8.768;2023-02-02T08:33:14;95626.72;;;4.32;95.17
10832;BME280;5469;48.574;8.768;2023-02-02T08:35:49;95638.88;;;4.27;94.04
10832;BME280;5469;48.574;8.768;2023-02-02T08:38:26;95633.09;;;4.43;94.27
10832;BME280;5469;48.574;8.768;2023-02-02T08:41:05;95633.06;;;4.50;93.92
10832;BME280;5469;48.574;8.768;2023-02-02T08:43:41;95638.41;;;4.36;94.14
10832;BME280;5469;48.574;8.768;2023-02-02T08:46:18;95654.50;;;4.47;93.29
10832;BME280;5469;48.574;8.768;2023-02-02T08:48:55;95664.69;;;4.30;93.84
10832;BME280;5469;48.574;8.768;2023-02-02T08:51:30;95657.03;;;4.28;93.50
10832;BME280;5469;48.574;8.768;2023-02-02T08:54:05;95679.38;;;4.37;94.31
10832;BME280;5469;48.574;8.768;2023-02-02T08:56:40;95678.72;;;4.49;93.50
10832;BME280;5469;48.574;8.768;2023-02-02T08:59:15;95678.38;;;4.38;93.78
10832;BME280;5469;48.574;8.768;2023-02-02T09:01:50;95682.34;;;4.48;92.93
10832;BME280;5469;48.574;8.768;2023-02-02T09:04:27;95695.28;;;4.43;92.72
10832;BME280;5469;48.574;8.768;2023-02-02T09:07:02;95692.84;;;4.48;92.63
10832;BME280;5469;48.574;8.768;2023-02-02T09:09:37;95715.13;;;4.38;92.45
10832;BME280;5469;48.574;8.768;2023-02-02T09:12:12;95706.59;;;4.43;92.18
10832;BME280;5469;48.574;8.768;2023-02-02T09:14:47;95716.63;;;4.53;92.23
10832;BME280;5469;48.574;8.768;2023-02-02T09:17:22;95719.53;;;4.45;92.16
10832;BME280;5469;48.574;8.768;2023-02-02T09:19:59;95718.63;;;4.57;92.35
10832;BME280;5469;48.574;8.768;2023-02-02T09:22:34;95717.09;;;4.43;93.53
10832;BME280;5469;48.574;8.768;2023-02-02T09:25:09;95725.97;;;4.49;93.04
10832;BME280;5469;48.574;8.768;2023-02-02T09:27:44;95719.06;;;4.54;94.34
10832;BME280;5469;48.574;8.768;2023-02-02T09:30:20;95718.72;;;4.44;94.97
10832;BME280;5469;48.574;8.768;2023-02-02T09:32:56;95721.19;;;4.32;95.62
10832;BME280;5469;48.574;8.768;2023-02-02T09:35:33;95731.25;;;4.42;95.75
10832;BME280;5469;48.574;8.768;2023-02-02T09:38:08;95726.78;;;4.43;96.34
10832;BME280;5469;48.574;8.768;2023-02-02T09:40:43;95719.94;;;4.42;96.95
10832;BME280;5469;48.574;8.768;2023-02-02T09:43:27;95715.28;;;4.44;97.38
10832;BME280;5469;48.574;8.768;2023-02-02T09:46:10;95721.53;;;4.43;97.69
10832;BME280;5469;48.574;8.768;2023-02-02T09:48:56;95736.88;;;4.46;97.83
10832;BME280;5469;48.574;8.768;2023-02-02T09:51:37;95732.38;;;4.53;97.69
10832;BME280;5469;48.574;8.768;2023-02-02T09:54:17;95745.00;;;4.37;97.81
10832;BME280;5469;48.574;8.768;2023-02-02T09:56:56;95736.88;;;4.46;98.51
10832;BME280;5469;48.574;8.768;2023-02-02T09:59:36;95731.44;;;4.41;98.06
10832;BME280;5469;48.574;8.768;2023-02-02T10:02:19;95751.38;;;4.55;97.09
10832;BME280;5469;48.574;8.768;2023-02-02T10:05:03;95737.63;;;4.53;98.15
10832;BME280;5469;48.574;8.768;2023-02-02T10:07:47;95746.78;;;4.75;97.36
10832;BME280;5469;48.574;8.768;2023-02-02T10:10:27;95742.88;;;4.53;97.64
10832;BME280;5469;48.574;8.768;2023-02-02T10:13:11;95749.72;;;4.54;97.75
10832;BME280;5469;48.574;8.768;2023-02-02T10:15:53;95752.53;;;4.59;97.85
10832;BME280;5469;48.574;8.768;2023-02-02T10:18:38;95762.13;;;4.47;98.17
10832;BME280;5469;48.574;8.768;2023-02-02T10:21:22;95761.69;;;4.50;97.46
10832;BME280;5469;48.574;8.768;2023-02-02T10:24:03;95753.44;;;4.46;97.42
10832;BME280;5469;48.574;8.768;2023-02-02T10:26:41;95746.72;;;4.19;98.65
10832;BME280;5469;48.574;8.768;2023-02-02T10:29:23;95759.13;;;4.36;98.35
10832;BME280;5469;48.574;8.768;2023-02-02T10:32:10;95739.75;;;4.37;97.96
10832;BME280;5469;48.574;8.768;2023-02-02T10:34:59;95736.88;;;4.46;97.40
10832;BME280;5469;48.574;8.768;2023-02-02T10:37:40;95731.22;;;4.49;97.65
10832;BME280;5469;48.574;8.768;2023-02-02T10:40:25;95731.84;;;4.44;97.11
10832;BME280;5469;48.574;8.768;2023-02-02T10:43:20;95730.13;;;4.56;97.04
10832;BME280;5469;48.574;8.768;2023-02-02T10:46:19;95735.19;;;4.58;96.25
10832;BME280;5469;48.574;8.768;2023-02-02T10:49:08;95736.84;;;4.52;97.06
10832;BME280;5469;48.574;8.768;2023-02-02T10:51:48;95736.41;;;4.55;97.32
10832;BME280;5469;48.574;8.768;2023-02-02T10:54:32;95745.94;;;4.50;96.79
10832;BME280;5469;48.574;8.768;2023-02-02T10:57:15;95749.59;;;4.49;96.76
10832;BME280;5469;48.574;8.768;2023-02-02T10:59:57;95751.56;;;4.53;97.36
10832;BME280;5469;48.574;8.768;2023-02-02T11:02:34;95746.13;;;4.55;96.62
10832;BME280;5469;48.574;8.768;2023-02-02T11:05:15;95750.06;;;4.64;96.37
10832;BME280;5469;48.574;8.768;2023-02-02T11:08:14;95752.13;;;4.62;95.65
10832;BME280;5469;48.574;8.768;2023-02-02T11:10:53;95751.25;;;4.75;95.21
10832;BME280;5469;48.574;8.768;2023-02-02T11:13:32;95757.78;;;4.59;95.47
10832;BME280;5469;48.574;8.768;2023-02-02T11:16:21;95765.84;;;4.64;96.57
10832;BME280;5469;48.574;8.768;2023-02-02T11:18:56;95762.63;;;4.62;96.27
10832;BME280;5469;48.574;8.768;2023-02-02T11:21:34;95756.97;;;4.65;95.84
10832;BME280;5469;48.574;8.768;2023-02-02T11:24:23;95748.91;;;4.60;96.19
10832;BME280;5469;48.574;8.768;2023-02-02T11:27:01;95742.53;;;4.49;96.18
10832;BME280;5469;48.574;8.768;2023-02-02T11:29:45;95746.03;;;4.68;96.52
10832;BME280;5469;48.574;8.768;2023-02-02T11:32:25;95739.13;;;4.74;96.36
10832;BME280;5469;48.574;8.768;2023-02-02T11:35:14;95748.84;;;4.67;95.73
10832;BME280;5469;48.574;8.768;2023-02-02T11:37:56;95746.44;;;4.65;95.95
10832;BME280;5469;48.574;8.768;2023-02-02T11:40:33;95745.94;;;4.81;94.47
10832;BME280;5469;48.574;8.768;2023-02-02T11:43:19;95749.84;;;4.72;94.77
10832;BME280;5469;48.574;8.768;2023-02-02T11:45:58;95748.94;;;4.85;94.41
10832;BME280;5469;48.574;8.768;2023-02-02T11:48:35;95751.19;;;4.81;94.24
10832;BME280;5469;48.574;8.768;2023-02-02T11:51:21;95750.72;;;4.91;94.22
10832;BME280;5469;48.574;8.768;2023-02-02T11:54:13;95755.44;;;4.82;93.28
10832;BME280;5469;48.574;8.768;2023-02-02T11:56:50;95762.72;;;4.80;94.57
10832;BME280;5469;48.574;8.768;2023-02-02T11:59:30;95761.69;;;4.81;93.79
10832;BME280;5469;48.574;8.768;2023-02-02T12:02:24;95754.84;;;4.80;93.92
10832;BME280;5469;48.574;8.768;2023-02-02T12:05:14;95759.81;;;4.89;94.52
10832;BME280;5469;48.574;8.768;2023-02-02T12:08:01;95760.03;;;4.87;94.83
10832;BME280;5469;48.574;8.768;2023-02-02T12:10:43;95758.47;;;4.79;94.37
10832;BME280;5469;48.574;8.768;2023-02-02T12:13:33;95760.91;;;4.74;94.28
10832;BME280;5469;48.574;8.768;2023-02-02T12:16:20;95767.34;;;4.85;94.56
10832;BME280;5469;48.574;8.768;2023-02-02T12:19:10;95751.56;;;4.85;94.53
10832;BME280;5469;48.574;8.768;2023-02-02T12:21:56;95749.91;;;4.91;94.39
10832;BME280;5469;48.574;8.768;2023-02-02T12:24:36;95753.06;;;4.99;94.19
10832;BME280;5469;48.574;8.768;2023-02-02T12:27:21;95767.34;;;4.85;94.22
10832;BME280;5469;48.574;8.768;2023-02-02T12:30:14;95740.56;;;4.95;94.21
10832;BME280;5469;48.574;8.768;2023-02-02T12:33:02;95768.94;;;4.86;93.68
10832;BME280;5469;48.574;8.768;2023-02-02T12:36:03;95760.91;;;4.74;93.32
10832;BME280;5469;48.574;8.768;2023-02-02T12:38:54;95743.69;;;4.85;94.43
10832;BME280;5469;48.574;8.768;2023-02-02T12:41:43;95750.97;;;5.08;94.12
10832;BME280;5469;48.574;8.768;2023-02-02T12:44:30;95740.63;;;4.88;93.82
10832;BME280;5469;48.574;8.768;2023-02-02T12:47:14;95739.75;;;5.01;93.88
10832;BME280;5469;48.574;8.768;2023-02-02T12:50:02;95746.91;;;5.12;93.83
10832;BME280;5469;48.574;8.768;2023-02-02T12:52:47;95758.50;;;5.04;93.70
10832;BME280;5469;48.574;8.768;2023-02-02T12:55:32;95753.75;;;5.13;92.65
10832;BME280;5469;48.574;8.768;2023-02-02T12:58:20;95739.63;;;5.14;94.01
10832;BME280;5469;48.574;8.768;2023-02-02T13:01:13;95740.53;;;5.01;92.89
10832;BME280;5469;48.574;8.768;2023-02-02T13:04:02;95755.66;;;5.06;93.42
10832;BME280;5469;48.574;8.768;2023-02-02T13:07:16;95740.56;;;4.95;93.49
10832;BME280;5469;48.574;8.768;2023-02-02T13:10:03;95749.06;;;4.97;93.37
10832;BME280;5469;48.574;8.768;2023-02-02T13:12:45;95747.34;;;5.09;94.54
10832;BME280;5469;48.574;8.768;2023-02-02T13:15:23;95737.78;;;4.90;93.77
10832;BME280;5469;48.574;8.768;2023-02-02T13:18:07;95737.78;;;4.90;94.47
10832;BME280;5469;48.574;8.768;2023-02-02T13:20:46;95728.34;;;4.82;94.47
10832;BME280;5469;48.574;8.768;2023-02-02T13:23:26;95734.16;;;4.91;94.57
10832;BME280;5469;48.574;8.768;2023-02-02T13:26:13;95733.75;;;4.87;94.47
10832;BME280;5469;48.574;8.768;2023-02-02T13:28:54;95745.41;;;4.98;94.49
10832;BME280;5469;48.574;8.768;2023-02-02T13:32:02;95737.06;;;4.82;94.08
10832;BME280;5469;48.574;8.768;2023-02-02T13:34:59;95752.03;;;4.75;95.24
10832;BME280;5469;48.574;8.768;2023-02-02T13:37:43;95757.28;;;4.75;95.07
10832;BME280;5469;48.574;8.768;2023-02-02T13:40:26;95765.00;;;4.70;95.21
10832;BME280;5469;48.574;8.768;2023-02-02T13:43:17;95760.75;;;4.69;94.60
10832;BME280;5469;48.574;8.768;2023-02-02T13:46:10;95765.00;;;4.70;94.55
10832;BME280;5469;48.574;8.768;2023-02-02T13:48:54;95770.69;;;4.67;94.34
10832;BME280;5469;48.574;8.768;2023-02-02T13:55:03;95767.81;;;4.75;94.54
10832;BME280;5469;48.574;8.768;2023-02-02T14:01:06;95764.16;;;4.76;94.31
10832;BME280;5469;48.574;8.768;2023-02-02T14:03:54;95770.59;;;4.80;94.74
10832;BME280;5469;48.574;8.768;2023-02-02T14:06:52;95775.44;;;4.77;94.29
10832;BME280;5469;48.574;8.768;2023-02-02T14:09:35;95795.22;;;4.79;94.19
10832;BME280;5469;48.574;8.768;2023-02-02T14:12:29;95785.50;;;4.87;94.30
10832;BME280;5469;48.574;8.768;2023-02-02T14:15:13;95794.56;;;4.91;94.64
10832;BME280;5469;48.574;8.768;2023-02-02T14:18:08;95772.19;;;4.81;94.93
10832;BME280;5469;48.574;8.768;2023-02-02T14:20:52;95787.53;;;4.85;95.18
10832;BME280;5469;48.574;8.768;2023-02-02T14:23:48;95786.88;;;4.96;94.96
10832;BME280;5469;48.574;8.768;2023-02-02T14:26:45;95790.88;;;4.98;94.32
10832;BME280;5469;48.574;8.768;2023-02-02T14:29:44;95794.00;;;4.82;94.47
10832;BME280;5469;48.574;8.768;2023-02-02T14:32:47;95786.78;;;4.77;94.66
10832;BME280;5469;48.574;8.768;2023-02-02T14:36:10;95801.69;;;4.84;94.06
10832;BME280;5469;48.574;8.768;2023-02-02T14:42:22;95798.19;;;4.90;92.57
10832;BME280;5469;48.574;8.768;2023-02-02T14:45:25;95800.47;;;4.79;92.67
10832;BME280;5469;48.574;8.768;2023-02-02T14:48:02;95803.63;;;4.95;92.54